Time;durP1;ratioP1;P1;durP2;ratioP2;P2;SDS_P1;SDS_P2;PMS_P1;PMS_P2;Temp;Humidity;BMP_temperature;BMP_pressure;BME280_temperature;BME280_humidity;BME280_pressure;Samples;Min_cycle;Max_cycle;Signal;HPM_P1;HPM_P2
2021/11/19 00:02:25;;;;;;;9.88;4.90;;;;;;;;;;5018442;28;20034;-68
2021/11/19 00:04:51;;;;;;;14.70;5.75;;;;;;;;;;5024242;28;20044;-68
2021/11/19 00:07:17;;;;;;;12.07;5.65;;;;;;;;;;5021755;28;20032;-68
2021/11/19 00:09:44;;;;;;;15.43;6.60;;;;;;;;;;5019103;28;20026;-68
2021/11/19 00:12:10;;;;;;;14.75;7.10;;;;;;;;;;5013695;28;20022;-68
2021/11/19 00:14:36;;;;;;;11.75;5.75;;;;;;;;;;5026043;28;20032;-68
2021/11/19 00:17:05;;;;;;;18.92;6.88;;;;;;;;;;5028454;28;20443;-68
2021/11/19 00:19:32;;;;;;;15.93;7.15;;;;;;;;;;5016123;28;20088;-68
2021/11/19 00:21:58;;;;;;;20.23;7.22;;;;;;;;;;5019782;28;20037;-68
2021/11/19 00:24:24;;;;;;;15.40;5.95;;;;;;;;;;5017294;28;20394;-69
2021/11/19 00:26:50;;;;;;;16.58;7.53;;;;;;;;;;5015930;28;20104;-68
2021/11/19 00:29:16;;;;;;;19.92;8.38;;;;;;;;;;5015437;28;20447;-68
2021/11/19 00:31:43;;;;;;;15.27;6.75;;;;;;;;;;5022583;28;20113;-68
2021/11/19 00:34:10;;;;;;;16.08;7.65;;;;;;;;;;5030794;28;20028;-68
2021/11/19 00:36:37;;;;;;;35.67;8.75;;;;;;;;;;5030696;28;20037;-69
2021/11/19 00:39:08;;;;;;;10.60;5.50;;;;;;;;;;5028134;28;20036;-68
2021/11/19 00:41:34;;;;;;;11.70;6.20;;;;;;;;;;5021527;28;20036;-68
2021/11/19 00:44:00;;;;;;;21.80;7.63;;;;;;;;;;5025653;28;20021;-68
2021/11/19 00:46:27;;;;;;;17.02;7.18;;;;;;;;;;5021079;28;20029;-69
2021/11/19 00:48:53;;;;;;;14.82;7.25;;;;;;;;;;5017392;28;20104;-68
2021/11/19 00:51:21;;;;;;;15.27;6.75;;;;;;;;;;5029527;28;20065;-69
2021/11/19 00:53:48;;;;;;;16.40;6.82;;;;;;;;;;5023058;28;20029;-68
2021/11/19 00:56:17;;;;;;;11.60;5.90;;;;;;;;;;5023135;28;20037;-68
2021/11/19 00:58:43;;;;;;;9.80;5.47;;;;;;;;;;5023329;28;20032;-67
2021/11/19 01:01:11;;;;;;;15.40;5.78;;;;;;;;;;5024260;28;20052;-69
2021/11/19 01:03:38;;;;;;;12.20;5.35;;;;;;;;;;5017601;28;20425;-68
2021/11/19 01:06:04;;;;;;;15.20;6.22;;;;;;;;;;5022353;28;20018;-68
2021/11/19 01:08:30;;;;;;;14.55;4.97;;;;;;;;;;5021522;28;20026;-68
2021/11/19 01:10:57;;;;;;;11.77;4.70;;;;;;;;;;5022119;28;20022;-68
2021/11/19 01:13:24;;;;;;;10.60;5.20;;;;;;;;;;5017959;28;20101;-69
2021/11/19 01:15:52;;;;;;;7.97;5.38;;;;;;;;;;5028749;28;20029;-69
2021/11/19 01:18:24;;;;;;;14.18;5.30;;;;;;;;;;5024703;28;20037;-68
2021/11/19 01:21:01;;;;;;;15.82;6.03;;;;;;;;;;5016353;28;20037;-68
2021/11/19 01:23:28;;;;;;;13.98;6.22;;;;;;;;;;5031819;28;20033;-68
2021/11/19 01:25:59;;;;;;;15.13;7.40;;;;;;;;;;5031722;28;20021;-68
2021/11/19 01:28:25;;;;;;;15.50;6.32;;;;;;;;;;5027193;28;20029;-68
2021/11/19 01:30:57;;;;;;;14.20;6.35;;;;;;;;;;5034644;28;20028;-69
2021/11/19 01:33:23;;;;;;;14.52;7.00;;;;;;;;;;5033611;28;20030;-68
2021/11/19 01:35:49;;;;;;;15.10;7.45;;;;;;;;;;5037639;28;20052;-68
2021/11/19 01:38:15;;;;;;;12.68;6.97;;;;;;;;;;5033546;28;20037;-68
2021/11/19 01:40:44;;;;;;;17.77;8.07;;;;;;;;;;5042585;28;20041;-68
2021/11/19 01:43:12;;;;;;;12.38;6.28;;;;;;;;;;5034057;28;20026;-70
2021/11/19 01:45:40;;;;;;;15.05;6.97;;;;;;;;;;5041002;28;20128;-68
2021/11/19 01:48:07;;;;;;;18.73;7.38;;;;;;;;;;5026416;28;20018;-68
2021/11/19 01:50:43;;;;;;;20.52;6.93;;;;;;;;;;5041157;28;20030;-68
2021/11/19 01:53:20;;;;;;;17.92;8.52;;;;;;;;;;5040581;28;20112;-69
2021/11/19 01:55:49;;;;;;;17.08;6.22;;;;;;;;;;5032269;28;20537;-68
2021/11/19 01:58:18;;;;;;;14.57;6.83;;;;;;;;;;5027223;28;20030;-68
2021/11/19 02:00:47;;;;;;;12.70;6.60;;;;;;;;;;5030686;28;20026;-68
2021/11/19 02:03:15;;;;;;;15.65;6.78;;;;;;;;;;5033868;28;20033;-70
2021/11/19 02:05:49;;;;;;;18.42;7.80;;;;;;;;;;5026822;28;20037;-68
2021/11/19 02:08:17;;;;;;;17.17;7.43;;;;;;;;;;5029927;28;20026;-68
2021/11/19 02:10:49;;;;;;;14.65;6.60;;;;;;;;;;5035740;28;20118;-69
2021/11/19 02:13:24;;;;;;;20.45;7.32;;;;;;;;;;5032491;28;20029;-68
2021/11/19 02:15:55;;;;;;;18.45;7.05;;;;;;;;;;5043448;28;20038;-68
2021/11/19 02:18:28;;;;;;;13.02;6.55;;;;;;;;;;5034258;28;20383;-68
2021/11/19 02:20:56;;;;;;;16.23;7.18;;;;;;;;;;5037152;28;20063;-68
2021/11/19 02:23:28;;;;;;;14.02;7.55;;;;;;;;;;5022775;28;20098;-68
2021/11/19 02:25:58;;;;;;;19.23;7.88;;;;;;;;;;5030272;28;20018;-68
2021/11/19 02:28:32;;;;;;;18.15;7.00;;;;;;;;;;5017997;28;20541;-68
2021/11/19 02:31:00;;;;;;;20.33;7.65;;;;;;;;;;5019980;28;20116;-68
2021/11/19 02:33:27;;;;;;;16.08;7.15;;;;;;;;;;5018967;28;20057;-68
2021/11/19 02:36:07;;;;;;;15.65;7.38;;;;;;;;;;5024924;28;20022;-68
2021/11/19 02:38:33;;;;;;;;;;;;;;;;;;5030496;28;20045;-68
2021/11/19 02:40:59;;;;;;;16.98;9.27;;;;;;;;;;5027163;28;20012;-68
2021/11/19 02:43:28;;;;;;;19.23;11.95;;;;;;;;;;5018994;28;20026;-69
2021/11/19 02:45:54;;;;;;;19.52;9.20;;;;;;;;;;5019828;28;20552;-68
2021/11/19 02:48:23;;;;;;;21.60;10.93;;;;;;;;;;5022905;28;20022;-68
2021/11/19 02:50:50;;;;;;;18.77;9.70;;;;;;;;;;5026389;28;20021;-68
2021/11/19 02:53:16;;;;;;;25.13;9.52;;;;;;;;;;5018932;28;20275;-68
2021/11/19 02:55:44;;;;;;;21.35;9.85;;;;;;;;;;5026173;28;20030;-68
2021/11/19 02:58:12;;;;;;;18.30;8.82;;;;;;;;;;5041103;28;20493;-68
2021/11/19 03:00:46;;;;;;;18.02;9.38;;;;;;;;;;5025716;28;20034;-68
2021/11/19 03:03:12;;;;;;;21.63;9.50;;;;;;;;;;5023118;28;20030;-68
2021/11/19 03:05:38;;;;;;;21.88;9.43;;;;;;;;;;5016940;28;20037;-69
2021/11/19 03:08:04;;;;;;;18.33;8.27;;;;;;;;;;5014256;28;20518;-69
2021/11/19 03:10:35;;;;;;;18.40;8.55;;;;;;;;;;5024475;28;20028;-70
2021/11/19 03:13:05;;;;;;;17.08;7.15;;;;;;;;;;5020360;28;20026;-68
2021/11/19 03:15:33;;;;;;;18.75;7.97;;;;;;;;;;5022092;28;20029;-68
2021/11/19 03:17:59;;;;;;;18.02;6.68;;;;;;;;;;5019821;28;21238;-68
2021/11/19 03:20:26;;;;;;;20.30;8.38;;;;;;;;;;5028793;28;20075;-69
2021/11/19 03:22:52;;;;;;;19.63;8.10;;;;;;;;;;5029602;28;20387;-68
2021/11/19 03:25:20;;;;;;;18.42;8.65;;;;;;;;;;5018291;28;20025;-69
2021/11/19 03:27:46;;;;;;;22.60;8.43;;;;;;;;;;5021178;28;20025;-68
2021/11/19 03:30:13;;;;;;;23.00;9.30;;;;;;;;;;5018863;28;20437;-68
2021/11/19 03:32:39;;;;;;;22.25;7.82;;;;;;;;;;5015313;28;20045;-68
2021/11/19 03:35:07;;;;;;;22.10;7.25;;;;;;;;;;5023056;28;20020;-69
2021/11/19 03:37:32;;;;;;;18.08;7.43;;;;;;;;;;5021461;28;20037;-69
2021/11/19 03:39:58;;;;;;;22.73;8.00;;;;;;;;;;5020078;28;20029;-69
2021/11/19 03:42:25;;;;;;;17.55;7.63;;;;;;;;;;5031534;28;20021;-68
2021/11/19 03:44:55;;;;;;;19.95;8.32;;;;;;;;;;5014822;28;20549;-69
2021/11/19 03:47:24;;;;;;;17.52;7.18;;;;;;;;;;5024521;28;20029;-69
2021/11/19 03:49:50;;;;;;;22.38;7.70;;;;;;;;;;5024718;28;20076;-69
2021/11/19 03:52:16;;;;;;;22.45;8.40;;;;;;;;;;5023190;28;20394;-68
2021/11/19 03:54:44;;;;;;;22.50;8.38;;;;;;;;;;5023176;28;20029;-68
2021/11/19 03:57:11;;;;;;;22.92;9.98;;;;;;;;;;5026432;28;20029;-69
2021/11/19 03:59:37;;;;;;;27.13;8.98;;;;;;;;;;5023988;28;20018;-70
2021/11/19 04:02:05;;;;;;;22.40;8.50;;;;;;;;;;5025365;28;20030;-69
2021/11/19 04:04:32;;;;;;;26.17;8.77;;;;;;;;;;5023512;28;20030;-68
2021/11/19 04:07:00;;;;;;;23.33;9.02;;;;;;;;;;5017229;28;20026;-69
2021/11/19 04:09:26;;;;;;;21.50;8.48;;;;;;;;;;5035581;28;20014;-70
2021/11/19 04:11:52;;;;;;;23.05;8.68;;;;;;;;;;5016062;28;20028;-69
2021/11/19 04:14:18;;;;;;;23.23;9.70;;;;;;;;;;5017514;28;20046;-69
2021/11/19 04:16:45;;;;;;;23.55;9.57;;;;;;;;;;5020389;28;20030;-68
2021/11/19 04:19:12;;;;;;;22.67;10.05;;;;;;;;;;5020657;28;20435;-68
2021/11/19 04:21:38;;;;;;;29.23;10.27;;;;;;;;;;5012654;28;20034;-68
2021/11/19 04:24:05;;;;;;;22.75;8.65;;;;;;;;;;5018297;28;20497;-69
2021/11/19 04:26:32;;;;;;;18.23;8.80;;;;;;;;;;5026505;28;20025;-68
2021/11/19 04:28:58;;;;;;;17.17;8.32;;;;;;;;;;5012199;28;20517;-68
2021/11/19 04:31:25;;;;;;;24.52;9.23;;;;;;;;;;5025199;28;20029;-68
2021/11/19 04:33:52;;;;;;;16.90;7.63;;;;;;;;;;5021748;28;20021;-68
2021/11/19 04:36:18;;;;;;;20.23;8.07;;;;;;;;;;5013630;28;20033;-68
2021/11/19 04:38:44;;;;;;;21.92;7.28;;;;;;;;;;5030888;23;20044;-71
2021/11/19 04:41:11;;;;;;;16.50;7.07;;;;;;;;;;4966119;28;20035;-71
2021/11/19 04:43:37;;;;;;;18.52;7.30;;;;;;;;;;4976301;28;20031;-71
2021/11/19 04:46:04;;;;;;;19.85;7.28;;;;;;;;;;4971991;28;20038;-71
2021/11/19 04:48:34;;;;;;;17.83;7.97;;;;;;;;;;4986065;28;20472;-71
2021/11/19 04:51:00;;;;;;;;;;;;;;;;;;4970598;28;20022;-71
2021/11/19 04:53:26;;;;;;;22.10;7.65;;;;;;;;;;4972179;28;20429;-70
2021/11/19 04:55:53;;;;;;;16.38;6.55;;;;;;;;;;4983277;28;20023;-71
2021/11/19 04:58:19;;;;;;;20.50;6.93;;;;;;;;;;4960688;28;20106;-71
2021/11/19 05:00:48;;;;;;;15.88;6.72;;;;;;;;;;4962016;28;20038;-71
2021/11/19 05:03:15;;;;;;;23.92;7.47;;;;;;;;;;4967646;28;20027;-71
2021/11/19 05:05:42;;;;;;;16.90;7.13;;;;;;;;;;4961310;28;20118;-71
2021/11/19 05:08:08;;;;;;;15.93;7.68;;;;;;;;;;4958875;28;20020;-71
2021/11/19 05:10:35;;;;;;;16.30;6.40;;;;;;;;;;4966589;28;20019;-71
2021/11/19 05:13:01;;;;;;;13.73;6.50;;;;;;;;;;4966641;28;20023;-71
2021/11/19 05:15:28;;;;;;;14.45;5.47;;;;;;;;;;4960242;28;20023;-71
2021/11/19 05:17:54;;;;;;;13.45;6.10;;;;;;;;;;4953884;28;20034;-71
2021/11/19 05:20:22;;;;;;;11.98;5.25;;;;;;;;;;4966733;28;20035;-71
2021/11/19 05:22:48;;;;;;;16.63;5.95;;;;;;;;;;4961509;28;20041;-71
2021/11/19 05:25:15;;;;;;;15.27;6.20;;;;;;;;;;4956278;28;20031;-71
2021/11/19 05:27:42;;;;;;;16.20;5.45;;;;;;;;;;4964931;28;20050;-71
2021/11/19 05:30:09;;;;;;;14.65;5.50;;;;;;;;;;4966711;28;20019;-71
2021/11/19 05:32:35;;;;;;;11.57;5.20;;;;;;;;;;4966516;28;20035;-71
2021/11/19 05:35:01;;;;;;;15.32;7.65;;;;;;;;;;4962622;28;20027;-71
2021/11/19 05:37:27;;;;;;;18.08;6.18;;;;;;;;;;4967195;28;20041;-71
2021/11/19 05:39:53;;;;;;;20.52;6.88;;;;;;;;;;4962515;28;20127;-71
2021/11/19 05:42:19;;;;;;;16.05;5.90;;;;;;;;;;4967819;28;20030;-71
2021/11/19 05:44:45;;;;;;;15.60;5.22;;;;;;;;;;4955926;28;20215;-71
2021/11/19 05:47:11;;;;;;;15.65;5.15;;;;;;;;;;4957492;28;20416;-71
2021/11/19 05:49:38;;;;;;;16.88;5.25;;;;;;;;;;4963716;28;20539;-71
2021/11/19 05:52:05;;;;;;;15.07;6.07;;;;;;;;;;4966108;28;20058;-71
2021/11/19 05:54:32;;;;;;;13.18;5.53;;;;;;;;;;4956412;28;20070;-71
2021/11/19 05:56:58;;;;;;;13.68;5.35;;;;;;;;;;4957229;28;20031;-71
2021/11/19 05:59:25;;;;;;;17.58;6.05;;;;;;;;;;4961679;28;20416;-71
2021/11/19 06:01:51;;;;;;;18.33;4.78;;;;;;;;;;4964246;28;20022;-71
2021/11/19 06:04:17;;;;;;;18.13;5.35;;;;;;;;;;4968860;28;20034;-71
2021/11/19 06:06:43;;;;;;;14.68;5.28;;;;;;;;;;4965821;28;20024;-71
2021/11/19 06:09:15;;;;;;;13.73;5.45;;;;;;;;;;4958954;28;20015;-71
2021/11/19 06:11:43;;;;;;;19.63;4.30;;;;;;;;;;4970476;28;20026;-71
2021/11/19 06:14:10;;;;;;;10.25;4.35;;;;;;;;;;4971983;28;20031;-71
2021/11/19 06:16:42;;;;;;;14.13;4.72;;;;;;;;;;4993528;28;20053;-71
2021/11/19 06:19:10;;;;;;;12.43;5.03;;;;;;;;;;4985139;28;20440;-72
2021/11/19 06:21:47;;;;;;;14.38;4.90;;;;;;;;;;4964952;28;20035;-72
2021/11/19 06:24:15;;;;;;;10.60;4.35;;;;;;;;;;4965247;28;20023;-72
2021/11/19 06:26:42;;;;;;;15.82;4.60;;;;;;;;;;4956112;28;20031;-72
2021/11/19 06:29:08;;;;;;;10.52;4.30;;;;;;;;;;4970428;28;20019;-72
2021/11/19 06:31:35;;;;;;;13.77;5.97;;;;;;;;;;4965362;28;20087;-72
2021/11/19 06:34:01;;;;;;;9.98;4.38;;;;;;;;;;4959870;28;20045;-72
2021/11/19 06:36:28;;;;;;;12.90;4.10;;;;;;;;;;4963826;28;20020;-72
2021/11/19 06:38:55;;;;;;;12.07;5.07;;;;;;;;;;4961989;28;20019;-72
2021/11/19 06:41:22;;;;;;;13.18;5.60;;;;;;;;;;4965822;28;20113;-72
2021/11/19 06:43:47;;;;;;;14.80;4.47;;;;;;;;;;4960069;28;20031;-72
2021/11/19 06:46:15;;;;;;;10.27;4.70;;;;;;;;;;4962615;28;20030;-72
2021/11/19 06:48:42;;;;;;;12.05;4.40;;;;;;;;;;4962942;28;20074;-72
2021/11/19 06:51:08;;;;;;;13.23;4.85;;;;;;;;;;4956982;28;20019;-73
2021/11/19 06:53:34;;;;;;;17.25;5.75;;;;;;;;;;4976407;28;20536;-72
2021/11/19 06:56:01;;;;;;;11.45;4.03;;;;;;;;;;4967126;28;20038;-72
2021/11/19 06:58:27;;;;;;;11.52;4.15;;;;;;;;;;4963765;28;20494;-72
2021/11/19 07:00:54;;;;;;;13.57;5.38;;;;;;;;;;4958423;28;20038;-72
2021/11/19 07:03:21;;;;;;;13.43;5.07;;;;;;;;;;4963802;28;20032;-72
2021/11/19 07:05:47;;;;;;;12.35;4.15;;;;;;;;;;4971938;28;20125;-72
2021/11/19 07:08:13;;;;;;;13.43;4.10;;;;;;;;;;4955302;28;20027;-72
2021/11/19 07:10:41;;;;;;;19.50;4.75;;;;;;;;;;4961796;28;20055;-72
2021/11/19 07:13:11;;;;;;;11.10;4.00;;;;;;;;;;4962880;28;20042;-74
2021/11/19 07:15:37;;;;;;;12.40;4.53;;;;;;;;;;4961894;28;20558;-73
2021/11/19 07:18:03;;;;;;;12.55;4.10;;;;;;;;;;4968812;28;20031;-72
2021/11/19 07:20:29;;;;;;;9.57;3.72;;;;;;;;;;4962734;28;20038;-72
2021/11/19 07:22:57;;;;;;;10.18;3.80;;;;;;;;;;4960671;28;20038;-72
2021/11/19 07:25:24;;;;;;;14.35;4.03;;;;;;;;;;4965766;28;20074;-72
2021/11/19 07:27:53;;;;;;;15.20;5.00;;;;;;;;;;4962085;28;20550;-72
2021/11/19 07:30:21;;;;;;;13.15;4.07;;;;;;;;;;4955946;28;20068;-72
2021/11/19 07:32:48;;;;;;;10.02;4.03;;;;;;;;;;4956443;28;20509;-72
2021/11/19 07:35:13;;;;;;;8.07;3.40;;;;;;;;;;4966994;28;20050;-72
2021/11/19 07:37:40;;;;;;;13.90;3.95;;;;;;;;;;4956973;28;20060;-72
2021/11/19 07:40:07;;;;;;;10.30;3.75;;;;;;;;;;4957464;28;20403;-71
2021/11/19 07:42:33;;;;;;;10.48;3.28;;;;;;;;;;4953600;28;20039;-72
2021/11/19 07:44:59;;;;;;;13.50;3.53;;;;;;;;;;4960953;28;20023;-72
2021/11/19 07:47:25;;;;;;;11.52;3.28;;;;;;;;;;4955704;28;20518;-72
2021/11/19 07:49:51;;;;;;;11.18;3.20;;;;;;;;;;4961241;28;20495;-72
2021/11/19 07:52:17;;;;;;;10.63;3.50;;;;;;;;;;4964275;28;20366;-72
2021/11/19 07:54:43;;;;;;;13.02;3.83;;;;;;;;;;4977289;28;20042;-72
2021/11/19 07:57:09;;;;;;;8.88;3.00;;;;;;;;;;4967862;28;20447;-71
2021/11/19 07:59:35;;;;;;;10.32;3.47;;;;;;;;;;4962099;28;20027;-71
2021/11/19 08:02:01;;;;;;;11.02;4.93;;;;;;;;;;4972334;28;20037;-71
2021/11/19 08:04:28;;;;;;;11.40;3.45;;;;;;;;;;4973380;28;20039;-71
2021/11/19 08:06:54;;;;;;;14.18;3.05;;;;;;;;;;4970320;28;20027;-72
2021/11/19 08:09:21;;;;;;;11.13;2.95;;;;;;;;;;4973214;28;20487;-72
2021/11/19 08:11:47;;;;;;;13.40;3.55;;;;;;;;;;4974252;28;20034;-72
2021/11/19 08:14:13;;;;;;;14.57;3.90;;;;;;;;;;4969306;28;20034;-72
2021/11/19 08:16:48;;;;;;;15.35;3.42;;;;;;;;;;4964689;28;20042;-72
2021/11/19 08:19:20;;;;;;;15.05;4.32;;;;;;;;;;4960586;28;20412;-72
2021/11/19 08:21:46;;;;;;;13.07;3.83;;;;;;;;;;4981370;28;20069;-72
2021/11/19 08:24:12;;;;;;;13.35;3.33;;;;;;;;;;4980792;28;20023;-72
2021/11/19 08:26:43;;;;;;;10.10;2.30;;;;;;;;;;4964334;28;20023;-72
2021/11/19 08:29:12;;;;;;;12.00;2.80;;;;;;;;;;4951420;28;20452;-72
2021/11/19 08:31:38;;;;;;;8.35;2.40;;;;;;;;;;4965181;28;20776;-71
2021/11/19 08:34:05;;;;;;;8.50;2.88;;;;;;;;;;4962247;28;20138;-71
2021/11/19 08:36:31;;;;;;;12.52;3.45;;;;;;;;;;4971779;28;20113;-71
2021/11/19 08:38:58;;;;;;;7.45;2.63;;;;;;;;;;4963198;28;20365;-72
2021/11/19 08:41:25;;;;;;;6.68;2.38;;;;;;;;;;4955471;28;20078;-72
2021/11/19 08:43:52;;;;;;;7.38;2.78;;;;;;;;;;4954472;28;20031;-72
2021/11/19 08:46:24;;;;;;;15.20;4.20;;;;;;;;;;4964163;28;20023;-72
2021/11/19 08:48:50;;;;;;;8.30;2.50;;;;;;;;;;4965256;28;20035;-72
2021/11/19 08:51:19;;;;;;;8.10;3.97;;;;;;;;;;4963524;28;20055;-73
2021/11/19 08:53:45;;;;;;;12.35;2.88;;;;;;;;;;4966744;28;20027;-73
2021/11/19 08:56:11;;;;;;;8.70;3.08;;;;;;;;;;4967581;28;20023;-73
2021/11/19 08:58:41;;;;;;;14.40;3.92;;;;;;;;;;4961758;28;20035;-72
2021/11/19 09:01:07;;;;;;;10.48;2.30;;;;;;;;;;4961886;28;20022;-73
2021/11/19 09:03:34;;;;;;;9.88;3.10;;;;;;;;;;4956914;28;20031;-73
2021/11/19 09:06:01;;;;;;;12.98;2.85;;;;;;;;;;4955480;28;20035;-73
2021/11/19 09:08:29;;;;;;;13.80;2.80;;;;;;;;;;4959308;28;20034;-73
2021/11/19 09:10:56;;;;;;;8.60;2.90;;;;;;;;;;4963280;28;20027;-73
2021/11/19 09:13:23;;;;;;;9.85;3.05;;;;;;;;;;4959221;28;20054;-73
2021/11/19 09:15:53;;;;;;;9.32;2.92;;;;;;;;;;4961075;28;20519;-73
2021/11/19 09:18:21;;;;;;;11.27;2.85;;;;;;;;;;4966814;28;20458;-73
2021/11/19 09:20:47;;;;;;;8.88;3.42;;;;;;;;;;4960383;28;20054;-73
2021/11/19 09:23:18;;;;;;;7.72;2.97;;;;;;;;;;4964180;28;20047;-73
2021/11/19 09:25:46;;;;;;;13.80;4.82;;;;;;;;;;4962547;28;20027;-73
2021/11/19 09:28:13;;;;;;;7.32;2.35;;;;;;;;;;4959929;28;20074;-73
2021/11/19 09:30:41;;;;;;;9.30;2.20;;;;;;;;;;4971219;28;20110;-73
2021/11/19 09:33:08;;;;;;;10.48;2.53;;;;;;;;;;4957596;28;20035;-72
2021/11/19 09:35:35;;;;;;;7.93;3.60;;;;;;;;;;4951141;28;20050;-72
2021/11/19 09:38:01;;;;;;;11.02;2.92;;;;;;;;;;4957874;28;20046;-72
2021/11/19 09:40:28;;;;;;;4.88;2.35;;;;;;;;;;4958703;28;20102;-72
2021/11/19 09:43:13;;;;;;;3.83;1.92;;;;;;;;;;4979798;28;20038;-72
2021/11/19 09:45:53;;;;;;;5.75;2.17;;;;;;;;;;4968332;28;20535;-72
2021/11/19 09:48:38;;;;;;;5.15;2.90;;;;;;;;;;4965550;28;20031;-72
2021/11/19 09:51:23;;;;;;;5.75;2.25;;;;;;;;;;4965066;28;20043;-72
2021/11/19 09:54:07;;;;;;;5.03;2.30;;;;;;;;;;4969817;28;20031;-72
2021/11/19 09:56:33;;;;;;;4.78;2.38;;;;;;;;;;4962766;28;20590;-72
2021/11/19 09:59:02;;;;;;;5.30;1.73;;;;;;;;;;4961739;28;20035;-72
2021/11/19 10:01:41;;;;;;;9.43;1.90;;;;;;;;;;4964233;28;20042;-72
2021/11/19 10:04:19;;;;;;;4.25;1.30;;;;;;;;;;4962111;28;20053;-71
2021/11/19 10:07:03;;;;;;;7.43;1.60;;;;;;;;;;4966378;28;20077;-72
2021/11/19 10:09:57;;;;;;;10.90;1.70;;;;;;;;;;4964363;28;20027;-73
2021/11/19 10:12:28;;;;;;;5.05;1.85;;;;;;;;;;4969013;28;20062;-72
2021/11/19 10:15:03;;;;;;;5.68;1.77;;;;;;;;;;4967084;28;20476;-72
2021/11/19 10:17:38;;;;;;;9.77;1.45;;;;;;;;;;4963390;28;20041;-72
2021/11/19 10:20:04;;;;;;;6.85;1.30;;;;;;;;;;4962730;28;20062;-74
2021/11/19 10:22:38;;;;;;;5.70;1.55;;;;;;;;;;4962311;28;20050;-73
2021/11/19 10:25:03;;;;;;;5.65;1.35;;;;;;;;;;4968474;28;20487;-75
2021/11/19 10:27:32;;;;;;;7.80;1.90;;;;;;;;;;4966194;28;20103;-75
2021/11/19 10:30:10;;;;;;;7.70;1.70;;;;;;;;;;4964375;28;20023;-75
2021/11/19 10:32:36;;;;;;;6.15;1.65;;;;;;;;;;4974771;28;20033;-75
2021/11/19 10:35:14;;;;;;;8.35;1.77;;;;;;;;;;4971435;28;20392;-75
2021/11/19 10:38:01;;;;;;;6.95;1.70;;;;;;;;;;4961846;28;20031;-74
2021/11/19 10:40:47;;;;;;;5.47;1.30;;;;;;;;;;4962495;28;20039;-75
2021/11/19 10:43:25;;;;;;;4.38;1.40;;;;;;;;;;4962081;28;20051;-73
2021/11/19 10:46:01;;;;;;;3.42;0.80;;;;;;;;;;4959818;28;20396;-74
2021/11/19 10:48:33;;;;;;;2.72;0.75;;;;;;;;;;4968698;28;20037;-74
2021/11/19 10:51:25;;;;;;;6.47;1.00;;;;;;;;;;4957229;28;20047;-74
2021/11/19 10:53:56;;;;;;;7.68;1.55;;;;;;;;;;4963619;28;20125;-74
2021/11/19 10:56:29;;;;;;;5.32;0.93;;;;;;;;;;4976527;28;20023;-74
2021/11/19 10:59:15;;;;;;;3.58;0.98;;;;;;;;;;4987148;28;20089;-74
2021/11/19 11:01:41;;;;;;;6.55;1.15;;;;;;;;;;4961509;28;20031;-74
2021/11/19 11:04:10;;;;;;;6.93;1.20;;;;;;;;;;4962581;28;20026;-74
2021/11/19 11:06:47;;;;;;;9.27;3.05;;;;;;;;;;4955468;28;20074;-73
2021/11/19 11:09:19;;;;;;;6.75;1.38;;;;;;;;;;4958231;28;20030;-74
2021/11/19 11:11:50;;;;;;;4.40;0.80;;;;;;;;;;4965612;28;20099;-74
2021/11/19 11:14:19;;;;;;;11.32;1.40;;;;;;;;;;4958434;28;20630;-73
2021/11/19 11:16:48;;;;;;;5.93;1.10;;;;;;;;;;4959767;28;20054;-74
2021/11/19 11:19:14;;;;;;;7.45;1.45;;;;;;;;;;4960783;28;20059;-74
2021/11/19 11:22:00;;;;;;;6.32;1.60;;;;;;;;;;4968676;28;20027;-75
2021/11/19 11:24:26;;;;;;;6.40;1.80;;;;;;;;;;4967359;28;20046;-74
2021/11/19 11:27:03;;;;;;;4.55;0.95;;;;;;;;;;4961880;28;20074;-74
2021/11/19 11:29:40;;;;;;;2.67;0.60;;;;;;;;;;4966255;28;20030;-74
2021/11/19 11:32:12;;;;;;;6.72;0.55;;;;;;;;;;4958292;28;20042;-73
2021/11/19 11:34:44;;;;;;;7.32;0.70;;;;;;;;;;4964200;28;20041;-74
2021/11/19 11:37:11;;;;;;;3.88;0.90;;;;;;;;;;4965284;28;20035;-74
2021/11/19 11:39:39;;;;;;;4.75;0.52;;;;;;;;;;4961965;28;20477;-74
2021/11/19 11:42:10;;;;;;;4.95;1.15;;;;;;;;;;4966200;28;20117;-74
2021/11/19 11:44:40;;;;;;;6.25;1.13;;;;;;;;;;4962233;28;20035;-74
2021/11/19 11:47:05;;;;;;;;;;;;;;;;;;4968346;28;20184;-74
2021/11/19 11:49:32;;;;;;;6.90;1.23;;;;;;;;;;4957533;28;20030;-74
2021/11/19 11:51:58;;;;;;;5.93;0.47;;;;;;;;;;4968286;28;20050;-73
2021/11/19 11:54:44;;;;;;;4.95;1.15;;;;;;;;;;4967751;28;20058;-74
2021/11/19 11:57:19;;;;;;;6.93;0.70;;;;;;;;;;4962814;28;20066;-74
2021/11/19 12:00:11;;;;;;;3.75;0.60;;;;;;;;;;4958969;28;20397;-74
2021/11/19 12:02:37;;;;;;;3.75;1.02;;;;;;;;;;4940891;28;20047;-74
2021/11/19 12:05:03;;;;;;;4.28;1.05;;;;;;;;;;4963222;28;20028;-74
2021/11/19 12:07:38;;;;;;;3.65;0.68;;;;;;;;;;4960479;28;20058;-75
2021/11/19 12:10:23;;;;;;;2.97;0.60;;;;;;;;;;4965534;28;20082;-75
2021/11/19 12:12:54;;;;;;;4.97;0.80;;;;;;;;;;4975081;28;20024;-75
2021/11/19 12:15:26;;;;;;;8.07;0.85;;;;;;;;;;4955556;28;20033;-75
2021/11/19 12:17:52;;;;;;;9.05;0.90;;;;;;;;;;4959967;28;20065;-75
2021/11/19 12:20:45;;;;;;;3.35;0.52;;;;;;;;;;4959560;28;20047;-74
2021/11/19 12:23:11;;;;;;;8.25;0.90;;;;;;;;;;4956583;28;20031;-74
2021/11/19 12:26:03;;;;;;;3.42;0.60;;;;;;;;;;4960014;28;20029;-74
2021/11/19 12:28:43;;;;;;;8.45;1.73;;;;;;;;;;4960864;28;20388;-74
2021/11/19 12:31:14;;;;;;;8.25;1.67;;;;;;;;;;4958441;28;20034;-74
2021/11/19 12:33:41;;;;;;;6.03;0.85;;;;;;;;;;4966586;28;20708;-74
2021/11/19 12:36:07;;;;;;;4.72;0.52;;;;;;;;;;4965396;28;20034;-75
2021/11/19 12:38:35;;;;;;;2.88;0.52;;;;;;;;;;4959308;28;20031;-74
2021/11/19 12:41:10;;;;;;;6.78;1.05;;;;;;;;;;4962715;28;20082;-74
2021/11/19 12:43:36;;;;;;;3.72;0.60;;;;;;;;;;4965246;28;20035;-76
2021/11/19 12:46:22;;;;;;;3.65;0.82;;;;;;;;;;4962722;28;20050;-74
2021/11/19 12:49:07;;;;;;;3.67;0.50;;;;;;;;;;4963162;28;20034;-75
2021/11/19 12:52:13;;;;;;;6.43;0.90;;;19.80;95.30;;;;;;5081887;27;20361;-74
2021/11/19 12:55:01;;;;;;;3.70;0.75;;;19.40;96.10;;;;;;5047696;28;20040;-74
2021/11/19 12:57:51;;;;;;;5.63;0.80;;;19.40;96.10;;;;;;5052060;28;20052;-74
2021/11/19 13:00:34;;;;;;;5.25;0.98;;;19.30;96.00;;;;;;5033364;28;20033;-73
2021/11/19 13:03:34;;;;;;;3.50;0.80;;;19.20;96.00;;;;;;5033991;28;20071;-73
2021/11/19 13:06:19;;;;;;;6.82;1.10;;;19.00;96.30;;;;;;5031312;28;20032;-73
2021/11/19 13:08:59;;;;;;;6.32;0.80;;;18.90;96.60;;;;;;5036989;28;20026;-73
2021/11/19 13:11:33;;;;;;;5.53;0.68;;;18.80;96.70;;;;;;5046004;28;20028;-73
2021/11/19 13:16:50;;;;;;;2.92;0.50;;;18.90;97.00;;;;;;5029944;28;20129;-73
2021/11/19 13:19:32;;;;;;;5.00;0.93;;;18.90;96.90;;;;;;5026632;28;20481;-72
2021/11/19 13:21:59;;;;;;;4.60;0.70;;;18.90;96.90;;;;;;5035729;28;20025;-72
2021/11/19 13:24:25;;;;;;;5.22;0.57;;;18.90;97.20;;;;;;5067439;28;20025;-73
2021/11/19 13:26:54;;;;;;;2.78;0.77;;;18.80;96.90;;;;;;5038314;28;20109;-72
2021/11/19 13:29:48;;;;;;;2.97;0.52;;;18.80;97.10;;;;;;5038010;28;20046;-73
2021/11/19 13:32:27;;;;;;;3.63;0.45;;;18.80;97.00;;;;;;5026528;28;20593;-73
2021/11/19 13:35:03;;;;;;;4.38;0.45;;;18.70;97.10;;;;;;5039722;28;20041;-73
2021/11/19 13:38:05;;;;;;;5.35;0.80;;;18.60;97.20;;;;;;5035973;28;20028;-73
2021/11/19 13:40:34;;;;;;;4.47;0.60;;;18.50;97.20;;;;;;5026649;28;20033;-73
2021/11/19 13:43:05;;;;;;;4.75;1.13;;;18.50;97.40;;;;;;5034582;28;20406;-73
2021/11/19 13:45:42;;;;;;;7.65;0.60;;;18.50;97.40;;;;;;5039522;28;20056;-73
2021/11/19 13:48:22;;;;;;;4.75;0.60;;;18.50;97.40;;;;;;5025790;28;20482;-73
2021/11/19 13:50:56;;;;;;;;;;;18.50;97.40;;;;;;5036803;28;20037;-73
2021/11/19 13:53:51;;;;;;;4.07;0.88;;;18.40;97.20;;;;;;5043115;28;19920;-73
2021/11/19 13:56:33;;;;;;;6.95;0.90;;;18.40;97.60;;;;;;5032294;28;20052;-73
2021/11/19 13:59:10;;;;;;;4.65;1.02;;;18.40;97.50;;;;;;5049878;28;20030;-73
2021/11/19 14:01:56;;;;;;;2.45;0.68;;;18.30;97.50;;;;;;5019320;28;20076;-73
2021/11/19 14:04:43;;;;;;;3.38;1.40;;;18.20;97.40;;;;;;5018401;28;20483;-73
2021/11/19 14:07:22;;;;;;;1.90;0.47;;;18.10;97.50;;;;;;5008494;28;20355;-73
2021/11/19 14:09:57;;;;;;;3.15;0.40;;;18.00;97.40;;;;;;5013742;28;20164;-72
2021/11/19 14:12:44;;;;;;;4.93;0.63;;;17.90;97.40;;;;;;5012992;28;20379;-73
2021/11/19 14:15:25;;;;;;;3.03;0.82;;;17.80;97.50;;;;;;5011633;28;20357;-73
2021/11/19 14:18:12;;;;;;;7.68;0.60;;;17.60;97.50;;;;;;5011270;28;20021;-73
2021/11/19 14:23:30;;;;;;;3.55;0.50;;;17.40;97.80;;;;;;5013228;28;20040;-73
2021/11/19 14:26:04;;;;;;;6.78;2.33;;;17.30;98.00;;;;;;5011178;28;20021;-73
2021/11/19 14:28:36;;;;;;;9.20;2.63;;;17.30;98.10;;;;;;5010760;28;20034;-72
2021/11/19 14:31:06;;;;;;;7.20;2.38;;;17.20;98.20;;;;;;5012042;28;20028;-73
2021/11/19 14:33:36;;;;;;;;;;;17.10;98.30;;;;;;5026152;28;20104;-73
2021/11/19 14:36:18;;;;;;;11.07;2.25;;;17.10;98.40;;;;;;5011495;28;20685;-74
2021/11/19 14:38:47;;;;;;;8.13;1.92;;;17.00;98.50;;;;;;5010093;28;20108;-74
2021/11/19 14:41:25;;;;;;;8.60;0.98;;;17.00;98.70;;;;;;5010920;28;20429;-73
2021/11/19 14:43:58;;;;;;;3.05;0.73;;;17.00;98.60;;;;;;5013839;28;20077;-73
2021/11/19 14:46:40;;;;;;;3.72;1.20;;;16.80;98.80;;;;;;5012600;28;20022;-73